Time;durP1;ratioP1;P1;durP2;ratioP2;P2;SDS_P1;SDS_P2;PMS_P1;PMS_P2;Temp;Humidity;BMP_temperature;BMP_pressure;BME280_temperature;BME280_humidity;BME280_pressure;Samples;Min_cycle;Max_cycle;Signal;HPM_P1;HPM_P2
2023/09/04 00:01:55;;;;;;;4.63;3.90;;;13.90;99.90;;;;;;4975775;28;89946;-38
2023/09/04 00:04:20;;;;;;;4.45;4.07;;;13.90;99.90;;;;;;4978800;28;88821;-34
2023/09/04 00:06:46;;;;;;;4.80;4.40;;;13.90;99.90;;;;;;4979138;28;90035;-35
2023/09/04 00:09:14;;;;;;;5.57;5.07;;;13.90;99.90;;;;;;4978953;28;89998;-37
2023/09/04 00:11:40;;;;;;;;;;;13.80;99.90;;;;;;4979661;28;90256;-36
2023/09/04 00:14:06;;;;;;;5.50;4.88;;;13.80;99.90;;;;;;4980352;28;89345;-35
2023/09/04 00:16:31;;;;;;;5.22;4.72;;;13.80;99.90;;;;;;4979237;28;90261;-35
2023/09/04 00:18:57;;;;;;;4.53;4.20;;;13.80;99.90;;;;;;4977749;28;90131;-37
2023/09/04 00:21:22;;;;;;;5.22;4.72;;;13.80;99.90;;;;;;4979714;28;89655;-37
2023/09/04 00:23:48;;;;;;;5.10;4.63;;;13.80;99.90;;;;;;4978317;28;88765;-35
2023/09/04 00:26:14;;;;;;;6.28;4.75;;;13.80;99.90;;;;;;4979099;28;90219;-34
2023/09/04 00:28:39;;;;;;;4.95;4.55;;;13.80;99.90;;;;;;4978370;28;88692;-35
2023/09/04 00:31:05;;;;;;;5.20;4.80;;;13.70;99.90;;;;;;4978144;28;90154;-34
2023/09/04 00:33:30;;;;;;;6.25;5.30;;;13.70;99.90;;;;;;4979008;28;88814;-35
2023/09/04 00:35:56;;;;;;;6.03;5.18;;;13.70;99.90;;;;;;4978856;28;90732;-37
2023/09/04 00:38:21;;;;;;;5.32;4.93;;;13.70;99.90;;;;;;4978046;28;89334;-38
2023/09/04 00:40:47;;;;;;;7.43;6.00;;;13.70;99.90;;;;;;4978833;28;90936;-36
2023/09/04 00:43:13;;;;;;;6.30;5.75;;;13.70;99.90;;;;;;4977753;28;88523;-36
2023/09/04 00:45:39;;;;;;;5.75;5.18;;;13.60;99.90;;;;;;4978447;28;91748;-35
2023/09/04 00:48:05;;;;;;;6.15;5.55;;;13.70;99.90;;;;;;4977298;28;91682;-33
2023/09/04 00:50:32;;;;;;;6.18;5.57;;;13.60;99.90;;;;;;4978791;28;89120;-35
2023/09/04 00:53:02;;;;;;;7.40;6.70;;;13.60;99.90;;;;;;4977904;28;88430;-35
2023/09/04 00:55:28;;;;;;;7.15;6.55;;;13.60;99.90;;;;;;4978593;28;92029;-36
2023/09/04 00:57:54;;;;;;;8.35;7.63;;;13.60;99.90;;;;;;4977399;28;89498;-34
2023/09/04 01:00:22;;;;;;;8.57;6.80;;;13.50;99.90;;;;;;4979007;28;89800;-35
2023/09/04 01:02:48;;;;;;;7.28;6.55;;;13.50;99.90;;;;;;4978874;28;89898;-38
2023/09/04 01:05:14;;;;;;;6.13;5.63;;;13.50;99.90;;;;;;4977505;28;90321;-34
2023/09/04 01:07:41;;;;;;;6.63;5.93;;;13.40;99.90;;;;;;4980075;28;89309;-37
2023/09/04 01:10:09;;;;;;;6.03;5.45;;;13.40;99.90;;;;;;4982113;28;90340;-34
2023/09/04 01:12:44;;;;;;;;;;;13.30;99.90;;;;;;4982200;28;89601;-36
2023/09/04 01:15:11;;;;;;;6.85;6.22;;;13.30;99.90;;;;;;4982646;28;89604;-34
2023/09/04 01:17:37;;;;;;;6.95;6.28;;;13.30;99.90;;;;;;4981474;28;90007;-35
2023/09/04 01:20:21;;;;;;;6.45;5.47;;;13.20;99.90;;;;;;4981231;28;88712;-38
2023/09/04 01:22:46;;;;;;;5.78;5.25;;;13.20;99.90;;;;;;4982478;28;89331;-36
2023/09/04 01:25:14;;;;;;;6.57;5.25;;;13.10;99.90;;;;;;4981228;28;88936;-38
2023/09/04 01:27:48;;;;;;;5.20;4.80;;;13.10;99.90;;;;;;4980742;28;90190;-34
2023/09/04 01:30:23;;;;;;;4.72;4.32;;;13.00;99.90;;;;;;4980731;28;89721;-38
2023/09/04 01:32:58;;;;;;;5.22;4.28;;;13.00;99.90;;;;;;4963131;28;89020;-35
2023/09/04 01:35:25;;;;;;;5.78;5.03;;;13.00;99.90;;;;;;4981542;28;91440;-37
2023/09/04 01:37:51;;;;;;;5.20;4.70;;;13.00;99.90;;;;;;4981294;28;92192;-36
2023/09/04 01:40:18;;;;;;;4.20;3.83;;;12.90;99.90;;;;;;4980693;28;89861;-35
2023/09/04 01:42:43;;;;;;;4.70;4.18;;;12.90;99.90;;;;;;4981010;28;88503;-36
2023/09/04 01:45:09;;;;;;;4.38;3.97;;;12.90;99.90;;;;;;4981098;28;91675;-36
2023/09/04 01:47:35;;;;;;;5.30;4.00;;;12.80;99.90;;;;;;4981344;28;89504;-34
2023/09/04 01:50:01;;;;;;;4.78;4.07;;;12.80;99.90;;;;;;4981667;28;89538;-34
2023/09/04 01:52:26;;;;;;;6.97;4.85;;;12.80;99.90;;;;;;4980534;28;89274;-34
2023/09/04 01:54:52;;;;;;;3.97;3.67;;;12.80;99.90;;;;;;4981313;28;90112;-34
2023/09/04 01:57:17;;;;;;;6.50;5.90;;;12.70;99.90;;;;;;4980636;28;90158;-36
2023/09/04 01:59:43;;;;;;;6.95;6.25;;;12.80;99.90;;;;;;4981657;28;89502;-35
2023/09/04 02:02:08;;;;;;;3.15;2.80;;;12.70;99.90;;;;;;4980470;28;90028;-35
2023/09/04 02:04:34;;;;;;;4.20;2.75;;;12.60;99.90;;;;;;4980316;28;90326;-35
2023/09/04 02:07:00;;;;;;;2.55;2.35;;;12.60;99.90;;;;;;4981497;28;89303;-37
2023/09/04 02:09:26;;;;;;;2.58;2.08;;;12.50;99.90;;;;;;4980102;28;90193;-34
2023/09/04 02:11:54;;;;;;;2.78;2.33;;;;;;;;;;4981616;28;89443;-34
2023/09/04 02:14:20;;;;;;;;;;;12.40;99.90;;;;;;4982425;28;89534;-37
2023/09/04 02:16:45;;;;;;;2.90;2.70;;;12.40;99.90;;;;;;4982142;28;89977;-36
2023/09/04 02:19:11;;;;;;;3.58;3.28;;;12.30;99.90;;;;;;4980555;28;90209;-34
2023/09/04 02:21:36;;;;;;;2.90;2.67;;;12.40;99.90;;;;;;4980833;28;89010;-35
2023/09/04 02:24:02;;;;;;;2.92;2.72;;;12.40;99.90;;;;;;4980879;28;90117;-39
2023/09/04 02:26:28;;;;;;;2.75;2.55;;;12.30;99.90;;;;;;4980222;28;89303;-39
2023/09/04 02:28:53;;;;;;;3.33;2.95;;;12.30;99.90;;;;;;4980016;28;90493;-36
2023/09/04 02:31:19;;;;;;;5.10;3.13;;;12.30;99.90;;;;;;4980341;28;89944;-37
2023/09/04 02:33:44;;;;;;;4.22;3.55;;;12.30;99.90;;;;;;4980471;28;90076;-36
2023/09/04 02:36:10;;;;;;;4.63;4.22;;;12.30;99.90;;;;;;4980570;28;89657;-38
2023/09/04 02:38:36;;;;;;;4.43;4.03;;;12.30;99.90;;;;;;4979562;28;89766;-38
2023/09/04 02:41:01;;;;;;;5.03;4.53;;;12.30;99.90;;;;;;4980307;28;88542;-37
2023/09/04 02:43:27;;;;;;;5.65;4.90;;;12.40;99.90;;;;;;4967444;28;89992;-34
2023/09/04 02:45:52;;;;;;;7.03;6.35;;;12.30;99.90;;;;;;4979947;28;90394;-38
2023/09/04 02:48:18;;;;;;;7.28;6.57;;;12.30;99.90;;;;;;4979877;28;90100;-34
2023/09/04 02:50:44;;;;;;;7.78;6.35;;;12.30;99.90;;;;;;4979903;28;89936;-36
2023/09/04 02:53:10;;;;;;;8.50;6.95;;;12.20;99.90;;;;;;4980120;28;89961;-35
2023/09/04 02:55:35;;;;;;;8.48;7.70;;;12.20;99.90;;;;;;4979885;28;89807;-36
2023/09/04 02:58:01;;;;;;;9.15;7.88;;;12.20;99.90;;;;;;4979916;28;89543;-35
2023/09/04 03:00:26;;;;;;;10.55;9.55;;;12.20;99.90;;;;;;4980467;28;88283;-34
2023/09/04 03:02:52;;;;;;;6.90;6.20;;;12.20;99.90;;;;;;4978083;28;90729;-34
2023/09/04 03:05:18;;;;;;;5.40;3.92;;;12.10;99.90;;;;;;4979873;28;89176;-37
2023/09/04 03:07:44;;;;;;;8.40;3.40;;;12.00;99.90;;;;;;4979925;28;89891;-36
2023/09/04 03:10:09;;;;;;;5.28;4.88;;;12.00;99.90;;;;;;4979904;28;89817;-35
2023/09/04 03:12:35;;;;;;;5.93;4.75;;;11.90;99.90;;;;;;4977751;28;90426;-35
2023/09/04 03:15:06;;;;;;;10.30;7.03;;;11.90;99.90;;;;;;4961292;28;90270;-38
2023/09/04 03:17:33;;;;;;;9.45;8.48;;;12.00;99.90;;;;;;4968628;28;90570;-38
2023/09/04 03:19:59;;;;;;;10.93;9.77;;;12.00;99.90;;;;;;4980160;28;89861;-33
2023/09/04 03:22:25;;;;;;;14.02;9.48;;;12.00;99.90;;;;;;4962180;28;90445;-35
2023/09/04 03:24:52;;;;;;;12.30;11.00;;;12.00;99.90;;;;;;4979505;28;89544;-35
2023/09/04 03:27:18;;;;;;;11.80;10.65;;;12.00;99.90;;;;;;4979106;28;89479;-37
2023/09/04 03:29:44;;;;;;;12.15;10.88;;;12.00;99.90;;;;;;4978198;28;89537;-38
2023/09/04 03:32:09;;;;;;;11.13;10.10;;;12.00;99.90;;;;;;4965895;28;90183;-39
2023/09/04 03:34:36;;;;;;;12.73;10.93;;;11.90;99.90;;;;;;4978835;28;89572;-34
2023/09/04 03:37:02;;;;;;;12.45;10.50;;;12.00;99.90;;;;;;4979150;28;90160;-33
2023/09/04 03:39:28;;;;;;;11.65;10.05;;;11.90;99.90;;;;;;4978103;28;90025;-37
2023/09/04 03:41:53;;;;;;;12.35;10.00;;;12.00;99.90;;;;;;4978908;28;90191;-36
2023/09/04 03:44:19;;;;;;;5.75;5.25;;;11.90;99.90;;;;;;4977059;28;90212;-37
2023/09/04 03:46:45;;;;;;;5.72;5.22;;;11.70;99.90;;;;;;4979885;28;89602;-34
2023/09/04 03:49:11;;;;;;;9.07;7.22;;;11.60;99.90;;;;;;4978870;28;88607;-33
2023/09/04 03:51:37;;;;;;;8.52;6.57;;;11.70;99.90;;;;;;4979380;28;89855;-39
2023/09/04 03:54:03;;;;;;;7.50;6.80;;;11.70;99.90;;;;;;4979086;28;89752;-35
2023/09/04 03:56:30;;;;;;;8.38;7.45;;;11.60;99.90;;;;;;4978814;28;89863;-35
2023/09/04 03:58:56;;;;;;;8.55;7.57;;;11.60;99.90;;;;;;4979664;28;89210;-38
2023/09/04 04:01:22;;;;;;;7.45;6.80;;;11.70;99.90;;;;;;4978653;28;90186;-35
2023/09/04 04:03:48;;;;;;;9.70;8.35;;;11.70;99.90;;;;;;4977764;28;89525;-36
2023/09/04 04:06:14;;;;;;;11.05;9.63;;;11.70;99.90;;;;;;4979262;28;90297;-36
2023/09/04 04:08:40;;;;;;;3.50;2.90;;;11.60;99.90;;;;;;4979171;28;90151;-35
2023/09/04 04:11:06;;;;;;;5.20;4.50;;;11.60;99.90;;;;;;4979445;28;88967;-39
2023/09/04 04:13:32;;;;;;;5.03;4.63;;;11.50;99.90;;;;;;4977785;28;90158;-33
2023/09/04 04:15:59;;;;;;;5.55;4.40;;;11.50;99.90;;;;;;4979204;28;89483;-34
2023/09/04 04:18:26;;;;;;;4.68;4.28;;;11.40;99.90;;;;;;4978767;28;87721;-37
2023/09/04 04:20:55;;;;;;;2.65;2.20;;;11.20;99.90;;;;;;4979412;28;91537;-35
2023/09/04 04:23:21;;;;;;;3.90;3.60;;;11.10;99.90;;;;;;4978370;28;90290;-35
2023/09/04 04:25:50;;;;;;;4.45;4.05;;;11.00;99.90;;;;;;4978873;28;89328;-34
2023/09/04 04:28:20;;;;;;;5.55;5.05;;;11.00;99.90;;;;;;4977744;28;90536;-38
2023/09/04 04:30:46;;;;;;;4.22;3.92;;;11.10;99.90;;;;;;4977828;28;90286;-37
2023/09/04 04:33:12;;;;;;;6.03;5.10;;;11.10;99.90;;;;;;4978625;28;89927;-36
2023/09/04 04:35:39;;;;;;;5.28;4.78;;;11.10;99.90;;;;;;4978660;28;88406;-36
2023/09/04 04:38:06;;;;;;;5.38;4.97;;;11.10;99.90;;;;;;4977739;28;89534;-39
2023/09/04 04:40:31;;;;;;;5.75;5.13;;;11.00;99.90;;;;;;4977783;28;90023;-36
2023/09/04 04:42:57;;;;;;;5.28;4.82;;;11.00;99.90;;;;;;4977794;28;90312;-35
2023/09/04 04:45:23;;;;;;;5.18;4.75;;;11.00;99.90;;;;;;4978874;28;90152;-39
2023/09/04 04:47:49;;;;;;;8.95;5.57;;;11.00;99.90;;;;;;4978703;28;89695;-34
2023/09/04 04:50:15;;;;;;;6.45;5.85;;;11.00;99.90;;;;;;4977582;28;90361;-35
2023/09/04 04:52:41;;;;;;;5.57;5.07;;;11.00;99.90;;;;;;4977481;28;90155;-35
2023/09/04 04:55:07;;;;;;;5.78;5.03;;;11.00;99.90;;;;;;4978483;28;91238;-34
2023/09/04 04:57:35;;;;;;;6.72;6.00;;;11.00;99.90;;;;;;4978723;28;87716;-36
2023/09/04 05:00:06;;;;;;;6.00;5.43;;;10.90;99.90;;;;;;4978355;28;90563;-34
2023/09/04 05:02:32;;;;;;;7.82;4.90;;;10.90;99.90;;;;;;4974384;28;90194;-33
2023/09/04 05:04:58;;;;;;;6.35;5.75;;;10.80;99.90;;;;;;4978914;28;89607;-32
2023/09/04 05:07:24;;;;;;;6.22;5.53;;;10.80;99.90;;;;;;4975043;28;89391;-32
2023/09/04 05:09:53;;;;;;;6.70;6.07;;;10.80;99.90;;;;;;4978727;28;88999;-36
2023/09/04 05:12:19;;;;;;;3.85;3.35;;;10.80;99.90;;;;;;4978239;28;89866;-34
2023/09/04 05:14:45;;;;;;;6.30;5.70;;;10.70;99.90;;;;;;4977824;28;90196;-35
2023/09/04 05:17:10;;;;;;;11.70;8.48;;;10.70;99.90;;;;;;4977506;28;90829;-39
2023/09/04 05:19:36;;;;;;;9.23;7.15;;;10.80;99.90;;;;;;4977669;28;90404;-37
2023/09/04 05:22:01;;;;;;;9.75;7.53;;;10.80;99.90;;;;;;4977204;28;89813;-37
2023/09/04 05:24:27;;;;;;;14.02;10.43;;;10.80;99.90;;;;;;4978219;28;90646;-35
2023/09/04 05:26:53;;;;;;;14.00;9.10;;;10.80;99.90;;;;;;4976792;28;88225;-35
2023/09/04 05:29:19;;;;;;;8.85;8.00;;;10.90;99.90;;;;;;4978470;28;90184;-38
2023/09/04 05:31:45;;;;;;;10.90;9.80;;;10.90;99.90;;;;;;4972725;28;90148;-34
2023/09/04 05:34:10;;;;;;;8.95;7.72;;;10.90;99.90;;;;;;4978289;28;89401;-34
2023/09/04 05:36:36;;;;;;;9.50;8.57;;;10.90;99.90;;;;;;4978293;28;89878;-37
2023/09/04 05:39:02;;;;;;;13.77;9.40;;;11.00;99.90;;;;;;4977902;28;90042;-34
2023/09/04 05:41:28;;;;;;;11.32;10.20;;;11.10;99.90;;;;;;4976450;28;90279;-37
2023/09/04 05:43:54;;;;;;;11.40;9.85;;;11.10;99.90;;;;;;4976914;28;90467;-37
2023/09/04 05:46:19;;;;;;;5.20;4.57;;;11.20;99.90;;;;;;4977354;28;89149;-35
2023/09/04 05:48:45;;;;;;;10.32;9.20;;;11.20;99.90;;;;;;4977712;28;92542;-34
2023/09/04 05:51:10;;;;;;;8.13;5.47;;;11.20;99.90;;;;;;4977427;28;90280;-34
2023/09/04 05:53:36;;;;;;;9.68;5.13;;;11.30;99.90;;;;;;4976803;28;89611;-37
2023/09/04 05:56:03;;;;;;;10.35;7.93;;;11.30;99.90;;;;;;4978180;28;89113;-38
2023/09/04 05:58:29;;;;;;;9.18;8.38;;;11.40;99.90;;;;;;4978248;28;90176;-36
2023/09/04 06:00:55;;;;;;;8.15;7.45;;;11.40;99.90;;;;;;4978401;28;88553;-34
2023/09/04 06:03:20;;;;;;;8.93;8.13;;;11.50;99.90;;;;;;4978496;28;89466;-36
2023/09/04 06:05:46;;;;;;;5.80;4.65;;;11.60;99.90;;;;;;4978814;28;88474;-34
2023/09/04 06:08:12;;;;;;;5.95;5.40;;;11.70;99.90;;;;;;4977952;28;89861;-34
2023/09/04 06:10:37;;;;;;;10.23;9.27;;;11.70;99.90;;;;;;4979202;28;89778;-38
2023/09/04 06:13:03;;;;;;;11.52;9.77;;;11.80;99.90;;;;;;4978875;28;89725;-38
2023/09/04 06:15:29;;;;;;;10.73;9.73;;;11.90;99.90;;;;;;4977522;28;89514;-38
2023/09/04 06:17:54;;;;;;;16.50;13.35;;;11.90;99.90;;;;;;4978856;28;90919;-34
2023/09/04 06:20:20;;;;;;;15.93;14.48;;;12.00;99.90;;;;;;4977106;28;89748;-35
2023/09/04 06:22:46;;;;;;;14.98;13.48;;;12.10;99.90;;;;;;4978084;28;89755;-36
2023/09/04 06:25:12;;;;;;;15.55;13.95;;;12.20;99.90;;;;;;4977834;28;88991;-36
2023/09/04 06:27:38;;;;;;;15.50;14.00;;;12.20;99.90;;;;;;4977566;28;90697;-36
2023/09/04 06:30:05;;;;;;;16.60;15.07;;;12.30;99.90;;;;;;4976379;28;89915;-32
2023/09/04 06:32:31;;;;;;;18.73;15.55;;;12.40;99.90;;;;;;4977527;28;90286;-37
2023/09/04 06:34:57;;;;;;;17.48;15.23;;;12.50;99.90;;;;;;4977303;28;88466;-35
2023/09/04 06:37:22;;;;;;;17.70;16.00;;;12.60;99.90;;;;;;4976955;28;91541;-34
2023/09/04 06:39:48;;;;;;;19.58;16.17;;;12.70;99.90;;;;;;4977051;28;90120;-34
2023/09/04 06:42:13;;;;;;;15.52;13.98;;;12.80;99.90;;;;;;4977787;28;88620;-37
2023/09/04 06:44:39;;;;;;;16.10;14.48;;;13.00;99.90;;;;;;4976609;28;89626;-35
2023/09/04 06:47:04;;;;;;;15.60;14.15;;;13.10;99.90;;;;;;4976512;28;89955;-36
2023/09/04 06:49:30;;;;;;;15.13;13.63;;;13.20;99.90;;;;;;4973136;28;89579;-36
2023/09/04 06:51:56;;;;;;;17.02;15.38;;;13.30;99.90;;;;;;4973983;28;92436;-36
2023/09/04 06:54:21;;;;;;;15.30;13.90;;;13.50;99.90;;;;;;4976300;28;90498;-36
2023/09/04 06:56:47;;;;;;;13.38;12.18;;;13.50;99.90;;;;;;4976909;28;90284;-36
2023/09/04 06:59:13;;;;;;;16.80;15.13;;;13.70;99.90;;;;;;4966466;28;89984;-37
2023/09/04 07:01:39;;;;;;;16.05;14.55;;;13.80;99.90;;;;;;4971362;28;89859;-36
2023/09/04 07:04:05;;;;;;;14.13;12.82;;;14.00;99.90;;;;;;4976106;28;87727;-34
2023/09/04 07:06:30;;;;;;;14.32;12.82;;;14.20;99.90;;;;;;4977269;28;90234;-33
2023/09/04 07:08:56;;;;;;;14.35;12.85;;;14.30;99.90;;;;;;4975695;28;89976;-37
2023/09/04 07:11:22;;;;;;;14.80;13.38;;;14.40;99.90;;;;;;4977015;28;90249;-39
2023/09/04 07:13:47;;;;;;;15.20;13.77;;;14.60;99.90;;;;;;4976622;28;89232;-33
2023/09/04 07:16:13;;;;;;;13.48;12.18;;;14.70;99.90;;;;;;4975869;28;90340;-35
2023/09/04 07:18:39;;;;;;;14.02;12.80;;;14.90;99.90;;;;;;4976187;28;90702;-35
2023/09/04 07:21:04;;;;;;;15.63;14.20;;;15.10;99.90;;;;;;4976395;28;90909;-34
2023/09/04 07:23:30;;;;;;;15.23;13.38;;;15.20;99.90;;;;;;4976271;28;89673;-32
2023/09/04 07:25:56;;;;;;;14.45;12.98;;;15.30;99.90;;;;;;4976279;28;90306;-36
2023/09/04 07:28:22;;;;;;;13.75;12.57;;;15.50;99.90;;;;;;4976444;28;89229;-36
2023/09/04 07:30:48;;;;;;;16.75;12.48;;;15.70;99.90;;;;;;4963726;28;89798;-37
2023/09/04 07:33:14;;;;;;;15.38;13.82;;;16.00;99.90;;;;;;4957198;28;89739;-35
2023/09/04 07:35:43;;;;;;;14.10;12.82;;;16.20;99.90;;;;;;4957574;28;90369;-33
2023/09/04 07:38:09;;;;;;;14.52;13.13;;;16.30;99.90;;;;;;4955583;28;90192;-33
2023/09/04 07:40:35;;;;;;;14.60;13.30;;;;;;;;;;4955965;28;89321;-34
2023/09/04 07:43:01;;;;;;;13.75;12.43;;;16.60;99.90;;;;;;4956547;28;89439;-35
2023/09/04 07:45:27;;;;;;;13.98;12.68;;;16.80;99.90;;;;;;4955674;28;91403;-36
2023/09/04 07:47:52;;;;;;;13.98;12.68;;;16.90;99.90;;;;;;4956643;28;89790;-36
2023/09/04 07:50:18;;;;;;;12.98;11.70;;;17.10;99.90;;;;;;4956415;28;89339;-34
2023/09/04 07:52:45;;;;;;;15.10;13.70;;;17.20;99.90;;;;;;4955744;28;89138;-35
2023/09/04 07:55:10;;;;;;;15.43;13.77;;;17.40;99.90;;;;;;4955404;28;89776;-36
2023/09/04 07:57:36;;;;;;;18.15;13.38;;;17.60;99.90;;;;;;4956382;28;89167;-35
2023/09/04 08:00:03;;;;;;;16.00;13.43;;;17.80;99.90;;;;;;4956297;28;89799;-35
2023/09/04 08:02:28;;;;;;;15.82;13.63;;;17.90;99.90;;;;;;4956892;28;88428;-32
2023/09/04 08:04:57;;;;;;;15.57;13.98;;;;;;;;;;4956264;28;90394;-34
2023/09/04 08:07:23;;;;;;;16.33;12.55;;;18.60;99.90;;;;;;4955005;28;90313;-33
2023/09/04 08:09:49;;;;;;;14.90;12.88;;;18.50;99.90;;;;;;4956081;28;89817;-35
2023/09/04 08:12:15;;;;;;;14.50;13.02;;;18.70;99.90;;;;;;4955829;28;89190;-34
2023/09/04 08:14:40;;;;;;;13.73;12.32;;;18.90;99.90;;;;;;4956133;28;90797;-37
2023/09/04 08:17:06;;;;;;;13.48;12.25;;;19.00;99.90;;;;;;4955926;28;89143;-33
2023/09/04 08:19:31;;;;;;;13.23;12.15;;;19.30;99.90;;;;;;4955854;28;89901;-37
2023/09/04 08:21:58;;;;;;;12.98;11.65;;;19.40;99.90;;;;;;4955211;28;89457;-34
2023/09/04 08:24:24;;;;;;;13.07;11.82;;;19.60;99.90;;;;;;4955667;28;90398;-34
2023/09/04 08:26:49;;;;;;;13.80;12.40;;;19.70;99.90;;;;;;4956347;28;89938;-34
2023/09/04 08:29:15;;;;;;;13.88;12.57;;;19.70;99.90;;;;;;4954651;28;89918;-33
2023/09/04 08:31:41;;;;;;;13.10;11.98;;;19.70;99.90;;;;;;5024901;22;90143;-37
2023/09/04 08:34:06;;;;;;;12.30;11.10;;;20.00;99.90;;;;;;4977849;28;90278;-33
2023/09/04 08:36:32;;;;;;;14.50;11.75;;;20.30;99.90;;;;;;4994099;28;89445;-35
2023/09/04 08:38:57;;;;;;;20.58;11.30;;;20.50;99.90;;;;;;4995639;28;90344;-32
2023/09/04 08:41:27;;;;;;;10.20;9.13;;;20.60;99.90;;;;;;4995157;28;89927;-33
2023/09/04 08:43:53;;;;;;;10.82;9.80;;;20.80;99.90;;;;;;4995370;28;90568;-34
2023/09/04 08:46:20;;;;;;;9.77;8.98;;;20.80;99.90;;;;;;4993358;28;89400;-36
2023/09/04 08:48:47;;;;;;;11.60;10.50;;;20.90;99.90;;;;;;4988364;28;90346;-33
2023/09/04 08:51:14;;;;;;;11.00;9.33;;;21.10;99.90;;;;;;4994175;28;87913;-34
2023/09/04 08:53:40;;;;;;;11.63;10.52;;;21.10;99.90;;;;;;4995887;28;90628;-35
2023/09/04 08:56:06;;;;;;;9.52;8.63;;;21.10;99.90;;;;;;4994576;28;90894;-35
2023/09/04 08:58:32;;;;;;;10.32;7.43;;;21.10;99.90;;;;;;4995370;28;91306;-33
2023/09/04 09:00:58;;;;;;;8.88;7.22;;;21.00;99.90;;;;;;4992595;28;89833;-33
2023/09/04 09:03:24;;;;;;;7.43;6.72;;;21.10;99.90;;;;;;4990436;28;90646;-35
2023/09/04 09:05:55;;;;;;;9.23;6.85;;;21.20;99.90;;;;;;4994956;28;90060;-33
2023/09/04 09:08:22;;;;;;;7.78;7.15;;;21.20;99.90;;;;;;4995544;28;90475;-33
2023/09/04 09:10:48;;;;;;;9.90;6.70;;;21.20;99.90;;;;;;4996203;28;90370;-32
2023/09/04 09:13:14;;;;;;;6.97;6.28;;;21.30;99.90;;;;;;4995543;28;90484;-32
2023/09/04 09:15:42;;;;;;;6.85;6.05;;;21.50;99.90;;;;;;4995608;28;89371;-33
2023/09/04 09:18:08;;;;;;;6.93;6.07;;;21.40;99.90;;;;;;4995630;28;89676;-36
2023/09/04 09:20:35;;;;;;;7.60;6.88;;;21.50;99.90;;;;;;4991063;28;89891;-33
2023/09/04 09:23:05;;;;;;;5.45;4.90;;;21.60;99.90;;;;;;4987156;28;90683;-36
2023/09/04 09:25:31;;;;;;;5.90;5.45;;;21.50;99.90;;;;;;4995414;28;89449;-35
2023/09/04 09:28:02;;;;;;;7.25;5.20;;;21.50;99.90;;;;;;4995846;28;89462;-35
2023/09/04 09:30:38;;;;;;;5.32;4.93;;;21.60;99.90;;;;;;4998142;28;89389;-35
2023/09/04 09:33:12;;;;;;;5.90;5.32;;;21.70;99.90;;;;;;4998627;28;89104;-35
2023/09/04 09:35:42;;;;;;;6.30;5.72;;;21.70;99.90;;;;;;4998021;28;91348;-34
2023/09/04 09:38:08;;;;;;;5.05;4.65;;;21.70;99.90;;;;;;4998725;28;89825;-35
2023/09/04 09:40:34;;;;;;;8.63;4.20;;;21.80;99.90;;;;;;4999414;28;90059;-36
2023/09/04 09:43:00;;;;;;;5.15;4.75;;;21.80;99.90;;;;;;4997976;28;90029;-36
2023/09/04 09:45:33;;;;;;;4.68;4.28;;;21.80;99.90;;;;;;4979708;28;91645;-35
2023/09/04 09:48:07;;;;;;;4.30;4.00;;;22.00;99.90;;;;;;4999008;28;90258;-35
2023/09/04 09:50:37;;;;;;;5.35;4.80;;;22.10;99.90;;;;;;4998373;28;89040;-36
2023/09/04 09:53:04;;;;;;;4.88;4.57;;;22.20;99.90;;;;;;4998127;28;89751;-31
2023/09/04 09:55:31;;;;;;;12.30;6.25;;;22.20;99.90;;;;;;4999377;28;90533;-34
2023/09/04 09:57:58;;;;;;;7.60;5.60;;;22.40;99.90;;;;;;4998137;28;90009;-36
2023/09/04 10:00:25;;;;;;;4.20;3.90;;;22.40;99.90;;;;;;4998392;28;88242;-36
2023/09/04 10:02:51;;;;;;;5.32;4.65;;;22.40;99.90;;;;;;4981616;28;92425;-36
2023/09/04 10:05:21;;;;;;;6.88;4.75;;;22.40;99.90;;;;;;4998039;28;88887;-34
2023/09/04 10:07:54;;;;;;;5.30;4.82;;;22.30;99.90;;;;;;4998709;28;88864;-34
2023/09/04 10:10:20;;;;;;;5.40;4.15;;;22.40;99.90;;;;;;4998377;28;88916;-34
2023/09/04 10:13:26;;;;;;;5.97;4.10;;;22.30;99.90;;;;;;4978734;28;89999;-33
2023/09/04 10:15:57;;;;;;;3.50;3.20;;;22.40;99.90;;;;;;4914639;28;89993;-35
2023/09/04 10:18:28;;;;;;;4.53;3.83;;;22.50;99.90;;;;;;4974794;28;90101;-34
2023/09/04 10:20:56;;;;;;;5.10;4.13;;;22.70;99.90;;;;;;4997559;28;89279;-34
2023/09/04 10:23:37;;;;;;;4.47;4.07;;;22.90;99.90;;;;;;4997797;28;90361;-34
2023/09/04 10:26:24;;;;;;;3.60;3.40;;;22.90;99.90;;;;;;4988080;28;90104;-34
2023/09/04 10:29:01;;;;;;;4.07;3.78;;;22.90;99.90;;;;;;4997921;28;89239;-36
2023/09/04 10:31:28;;;;;;;4.77;4.37;;;23.00;99.90;;;;;;4997254;28;88806;-35
2023/09/04 10:33:55;;;;;;;5.57;3.53;;;23.00;99.90;;;;;;4997421;28;90883;-35
2023/09/04 10:36:21;;;;;;;3.77;3.47;;;23.10;99.90;;;;;;4996633;28;90948;-36
2023/09/04 10:38:47;;;;;;;4.18;3.75;;;23.20;99.90;;;;;;4990753;28;89084;-34
2023/09/04 10:41:14;;;;;;;4.70;3.35;;;23.20;99.90;;;;;;4991555;28;89581;-37
2023/09/04 10:43:44;;;;;;;4.10;3.70;;;23.20;99.90;;;;;;4986258;28;90140;-37
2023/09/04 10:46:14;;;;;;;4.78;3.75;;;23.20;99.90;;;;;;4997054;28;91329;-34
2023/09/04 10:48:44;;;;;;;4.90;3.95;;;23.20;99.90;;;;;;4997374;28;90464;-34
2023/09/04 10:51:25;;;;;;;4.03;3.72;;;23.30;99.90;;;;;;4997339;28;88464;-36
2023/09/04 10:53:50;;;;;;;4.70;3.78;;;23.30;99.90;;;;;;4994533;28;90220;-36
2023/09/04 10:56:16;;;;;;;4.97;3.83;;;23.30;99.90;;;;;;4993109;28;89781;-36
2023/09/04 10:59:01;;;;;;;4.47;4.07;;;23.20;99.90;;;;;;4997584;28;91014;-33
2023/09/04 11:01:45;;;;;;;4.43;4.03;;;23.10;99.90;;;;;;4990098;28;89631;-37
2023/09/04 11:04:10;;;;;;;3.80;3.50;;;23.00;99.90;;;;;;4993028;28;91275;-32
2023/09/04 11:06:37;;;;;;;4.03;3.72;;;23.00;99.90;;;;;;4997578;28;90189;-34
2023/09/04 11:09:04;;;;;;;4.33;3.97;;;23.00;99.90;;;;;;4997811;28;90978;-34
2023/09/04 11:11:31;;;;;;;4.05;3.65;;;23.00;99.90;;;;;;4996862;28;89743;-33
2023/09/04 11:14:02;;;;;;;4.63;4.18;;;23.20;99.90;;;;;;4997423;28;91412;-34
2023/09/04 11:16:40;;;;;;;4.00;3.70;;;23.20;99.90;;;;;;4997190;28;89607;-35
2023/09/04 11:19:14;;;;;;;3.63;3.33;;;23.20;99.90;;;;;;4996449;28;90164;-34
2023/09/04 11:21:44;;;;;;;3.42;3.13;;;23.30;99.90;;;;;;4984071;28;89309;-37
2023/09/04 11:24:10;;;;;;;4.30;3.95;;;23.30;99.90;;;;;;4998127;28;90358;-37
2023/09/04 11:26:36;;;;;;;3.58;3.28;;;23.40;99.90;;;;;;4996102;28;92034;-35
2023/09/04 11:29:03;;;;;;;6.55;2.90;;;23.50;99.90;;;;;;4997428;28;90411;-34
2023/09/04 11:31:30;;;;;;;7.20;3.45;;;23.40;99.90;;;;;;4997854;28;88985;-35
2023/09/04 11:33:56;;;;;;;3.88;3.38;;;23.50;99.90;;;;;;4991217;28;90237;-35
2023/09/04 11:36:23;;;;;;;3.50;2.95;;;23.40;99.90;;;;;;4991389;28;89661;-34
2023/09/04 11:39:08;;;;;;;3.90;3.60;;;23.50;99.90;;;;;;4997462;28;89530;-34
2023/09/04 11:41:34;;;;;;;3.42;3.13;;;23.50;99.90;;;;;;4996129;28;90418;-35
2023/09/04 11:44:00;;;;;;;3.20;2.92;;;23.40;99.90;;;;;;4997188;28;89831;-38
2023/09/04 11:46:27;;;;;;;6.18;3.35;;;23.50;99.90;;;;;;4996839;28;90244;-36
2023/09/04 11:48:52;;;;;;;2.80;2.60;;;23.40;99.90;;;;;;4996133;28;89026;-36
2023/09/04 11:51:18;;;;;;;3.83;3.50;;;23.40;99.90;;;;;;4996126;28;89787;-35
2023/09/04 11:53:45;;;;;;;5.53;3.40;;;23.40;99.90;;;;;;4996925;28;91210;-33
2023/09/04 11:56:11;;;;;;;3.47;3.08;;;23.30;99.90;;;;;;4995552;28;90089;-35
2023/09/04 11:58:37;;;;;;;4.03;2.88;;;23.50;99.90;;;;;;4997072;28;89479;-35
2023/09/04 12:01:02;;;;;;;3.60;3.30;;;23.40;99.90;;;;;;4993341;28;88562;-36
2023/09/04 12:03:28;;;;;;;3.15;2.95;;;23.50;99.90;;;;;;4986584;28;90258;-34
2023/09/04 12:05:55;;;;;;;3.72;3.38;;;23.50;99.90;;;;;;4996918;28;89701;-36
2023/09/04 12:08:21;;;;;;;3.15;2.95;;;23.50;99.90;;;;;;4997091;28;88986;-34
2023/09/04 12:10:48;;;;;;;3.35;3.08;;;23.60;99.90;;;;;;4996081;28;88787;-36
2023/09/04 12:13:15;;;;;;;4.90;3.20;;;23.50;99.90;;;;;;4987948;28;90272;-36
2023/09/04 12:15:41;;;;;;;3.38;3.13;;;23.40;99.90;;;;;;4995196;28;90170;-35
2023/09/04 12:18:07;;;;;;;3.53;3.22;;;23.60;99.90;;;;;;4996189;28;90919;-36
2023/09/04 12:20:36;;;;;;;4.10;3.70;;;23.60;99.90;;;;;;4992187;28;88499;-34
2023/09/04 12:23:02;;;;;;;3.97;3.50;;;23.70;99.90;;;;;;4993260;28;90323;-32
2023/09/04 12:25:39;;;;;;;3.67;3.03;;;23.60;99.90;;;;;;4994096;28;89254;-35
2023/09/04 12:28:06;;;;;;;5.75;3.55;;;23.60;99.90;;;;;;4996181;28;89540;-39
2023/09/04 12:30:51;;;;;;;3.40;3.10;;;23.70;99.90;;;;;;4988616;28;89903;-35
2023/09/04 12:33:17;;;;;;;3.90;3.55;;;23.70;99.90;;;;;;4990180;28;90372;-36
2023/09/04 12:35:42;;;;;;;3.50;3.25;;;23.80;99.90;;;;;;4996197;28;88894;-33
2023/09/04 12:38:08;;;;;;;6.25;2.80;;;23.90;99.90;;;;;;4995802;28;89288;-36
2023/09/04 12:40:35;;;;;;;3.78;3.20;;;24.10;99.90;;;;;;4995064;28;90387;-37
2023/09/04 12:43:01;;;;;;;3.97;3.58;;;24.10;99.90;;;;;;4996366;28;90528;-38